sensor_id;sensor_type;location;lat;lon;timestamp;temperature;humidity
62339;DHT22;48368;53.406;6.214;2022-08-03T00:01:06;19.00;99.90
62339;DHT22;48368;53.406;6.214;2022-08-03T00:03:32;19.00;99.90
62339;DHT22;48368;53.406;6.214;2022-08-03T00:05:58;19.00;99.90
62339;DHT22;48368;53.406;6.214;2022-08-03T00:08:23;19.00;99.90
62339;DHT22;48368;53.406;6.214;2022-08-03T00:10:49;19.00;99.90
62339;DHT22;48368;53.406;6.214;2022-08-03T00:13:15;19.00;99.90
62339;DHT22;48368;53.406;6.214;2022-08-03T00:15:41;19.00;99.90
62339;DHT22;48368;53.406;6.214;2022-08-03T00:18:08;19.00;99.90
62339;DHT22;48368;53.406;6.214;2022-08-03T00:20:33;19.00;99.90
62339;DHT22;48368;53.406;6.214;2022-08-03T00:22:59;19.00;99.90
62339;DHT22;48368;53.406;6.214;2022-08-03T00:25:25;19.00;99.90
62339;DHT22;48368;53.406;6.214;2022-08-03T00:27:51;19.00;99.90
62339;DHT22;48368;53.406;6.214;2022-08-03T00:30:16;18.90;99.90
62339;DHT22;48368;53.406;6.214;2022-08-03T00:32:42;19.00;99.90
62339;DHT22;48368;53.406;6.214;2022-08-03T00:35:08;18.90;99.90
62339;DHT22;48368;53.406;6.214;2022-08-03T00:37:34;19.00;99.90
62339;DHT22;48368;53.406;6.214;2022-08-03T00:39:59;18.90;99.90
62339;DHT22;48368;53.406;6.214;2022-08-03T00:42:25;18.90;99.90
62339;DHT22;48368;53.406;6.214;2022-08-03T00:44:50;19.00;99.90
62339;DHT22;48368;53.406;6.214;2022-08-03T00:47:16;19.00;99.90
62339;DHT22;48368;53.406;6.214;2022-08-03T00:49:42;18.90;99.90
62339;DHT22;48368;53.406;6.214;2022-08-03T00:52:09;18.90;99.90
62339;DHT22;48368;53.406;6.214;2022-08-03T00:54:36;18.90;99.90
62339;DHT22;48368;53.406;6.214;2022-08-03T00:57:02;18.90;99.90
62339;DHT22;48368;53.406;6.214;2022-08-03T00:59:29;18.90;99.90
62339;DHT22;48368;53.406;6.214;2022-08-03T01:01:55;18.90;99.90
62339;DHT22;48368;53.406;6.214;2022-08-03T01:04:21;18.90;99.90
62339;DHT22;48368;53.406;6.214;2022-08-03T01:07:08;18.90;99.90
62339;DHT22;48368;53.406;6.214;2022-08-03T01:18:13;18.80;99.90
62339;DHT22;48368;53.406;6.214;2022-08-03T01:20:45;18.80;99.90
62339;DHT22;48368;53.406;6.214;2022-08-03T01:23:20;18.80;99.90
62339;DHT22;48368;53.406;6.214;2022-08-03T01:26:12;18.70;99.90
62339;DHT22;48368;53.406;6.214;2022-08-03T01:29:12;18.70;99.90
62339;DHT22;48368;53.406;6.214;2022-08-03T01:31:56;18.70;99.90
62339;DHT22;48368;53.406;6.214;2022-08-03T01:34:27;18.70;99.90
62339;DHT22;48368;53.406;6.214;2022-08-03T01:36:55;18.70;99.90
62339;DHT22;48368;53.406;6.214;2022-08-03T01:39:24;18.70;99.90
62339;DHT22;48368;53.406;6.214;2022-08-03T01:41:57;18.70;99.90
62339;DHT22;48368;53.406;6.214;2022-08-03T01:44:28;18.70;99.90
62339;DHT22;48368;53.406;6.214;2022-08-03T01:46:57;18.70;99.90
62339;DHT22;48368;53.406;6.214;2022-08-03T01:49:25;18.70;99.90
62339;DHT22;48368;53.406;6.214;2022-08-03T01:51:52;18.60;99.90
62339;DHT22;48368;53.406;6.214;2022-08-03T01:54:19;18.70;99.90
62339;DHT22;48368;53.406;6.214;2022-08-03T01:56:48;18.60;99.90
62339;DHT22;48368;53.406;6.214;2022-08-03T01:59:16;18.60;99.90
62339;DHT22;48368;53.406;6.214;2022-08-03T02:01:44;18.60;99.90
62339;DHT22;48368;53.406;6.214;2022-08-03T02:04:12;18.60;99.90
62339;DHT22;48368;53.406;6.214;2022-08-03T02:06:39;18.60;99.90
62339;DHT22;48368;53.406;6.214;2022-08-03T02:09:06;18.60;99.90
62339;DHT22;48368;53.406;6.214;2022-08-03T02:11:33;18.60;99.90
62339;DHT22;48368;53.406;6.214;2022-08-03T02:14:02;18.60;99.90
62339;DHT22;48368;53.406;6.214;2022-08-03T02:16:30;18.60;99.90
62339;DHT22;48368;53.406;6.214;2022-08-03T02:18:58;18.60;99.90
62339;DHT22;48368;53.406;6.214;2022-08-03T02:21:27;18.60;99.90
62339;DHT22;48368;53.406;6.214;2022-08-03T02:23:53;18.60;99.90
62339;DHT22;48368;53.406;6.214;2022-08-03T02:26:20;18.50;99.90
62339;DHT22;48368;53.406;6.214;2022-08-03T02:28:47;18.60;99.90
62339;DHT22;48368;53.406;6.214;2022-08-03T02:31:27;18.50;99.90
62339;DHT22;48368;53.406;6.214;2022-08-03T02:34:03;18.40;99.90
62339;DHT22;48368;53.406;6.214;2022-08-03T02:36:34;18.50;99.90
62339;DHT22;48368;53.406;6.214;2022-08-03T02:39:02;18.40;99.90
62339;DHT22;48368;53.406;6.214;2022-08-03T02:41:47;18.40;99.90
62339;DHT22;48368;53.406;6.214;2022-08-03T02:44:17;18.40;99.90
62339;DHT22;48368;53.406;6.214;2022-08-03T02:46:45;18.40;99.90
62339;DHT22;48368;53.406;6.214;2022-08-03T02:49:15;18.40;99.90
62339;DHT22;48368;53.406;6.214;2022-08-03T02:51:44;18.40;99.90
62339;DHT22;48368;53.406;6.214;2022-08-03T02:54:15;18.30;99.90
62339;DHT22;48368;53.406;6.214;2022-08-03T02:56:43;18.40;99.90
62339;DHT22;48368;53.406;6.214;2022-08-03T02:59:11;18.30;99.90
62339;DHT22;48368;53.406;6.214;2022-08-03T03:01:38;18.30;99.90
62339;DHT22;48368;53.406;6.214;2022-08-03T03:04:04;18.30;99.90
62339;DHT22;48368;53.406;6.214;2022-08-03T03:06:30;18.30;99.90
62339;DHT22;48368;53.406;6.214;2022-08-03T03:08:56;18.30;99.90
62339;DHT22;48368;53.406;6.214;2022-08-03T03:11:24;18.30;99.90
62339;DHT22;48368;53.406;6.214;2022-08-03T03:13:51;18.30;99.90
62339;DHT22;48368;53.406;6.214;2022-08-03T03:16:17;18.30;99.90
62339;DHT22;48368;53.406;6.214;2022-08-03T03:18:45;18.30;99.90
62339;DHT22;48368;53.406;6.214;2022-08-03T03:21:12;18.30;99.90
62339;DHT22;48368;53.406;6.214;2022-08-03T03:23:41;18.40;99.90
62339;DHT22;48368;53.406;6.214;2022-08-03T03:26:07;18.40;99.90
62339;DHT22;48368;53.406;6.214;2022-08-03T03:28:33;18.30;99.90
62339;DHT22;48368;53.406;6.214;2022-08-03T03:31:03;18.30;99.90
62339;DHT22;48368;53.406;6.214;2022-08-03T03:33:29;18.30;99.90
62339;DHT22;48368;53.406;6.214;2022-08-03T03:35:56;18.30;99.90
62339;DHT22;48368;53.406;6.214;2022-08-03T03:38:22;18.30;99.90
62339;DHT22;48368;53.406;6.214;2022-08-03T03:40:47;18.30;99.90
62339;DHT22;48368;53.406;6.214;2022-08-03T03:43:13;18.30;99.90
62339;DHT22;48368;53.406;6.214;2022-08-03T03:45:42;18.30;99.90
62339;DHT22;48368;53.406;6.214;2022-08-03T03:48:08;18.30;99.90
62339;DHT22;48368;53.406;6.214;2022-08-03T03:50:34;18.30;99.90
62339;DHT22;48368;53.406;6.214;2022-08-03T03:53:02;18.30;99.90
62339;DHT22;48368;53.406;6.214;2022-08-03T03:55:28;18.30;99.90
62339;DHT22;48368;53.406;6.214;2022-08-03T03:57:55;18.30;99.90
62339;DHT22;48368;53.406;6.214;2022-08-03T04:00:20;18.30;99.90
62339;DHT22;48368;53.406;6.214;2022-08-03T04:02:46;18.30;99.90
62339;DHT22;48368;53.406;6.214;2022-08-03T04:05:13;18.30;99.90
62339;DHT22;48368;53.406;6.214;2022-08-03T04:08:06;18.20;99.90
62339;DHT22;48368;53.406;6.214;2022-08-03T04:13:54;18.30;99.90
62339;DHT22;48368;53.406;6.214;2022-08-03T04:16:28;18.30;99.90
62339;DHT22;48368;53.406;6.214;2022-08-03T04:19:00;18.30;99.90
62339;DHT22;48368;53.406;6.214;2022-08-03T04:21:27;18.30;99.90
62339;DHT22;48368;53.406;6.214;2022-08-03T04:23:58;18.30;99.90
62339;DHT22;48368;53.406;6.214;2022-08-03T04:26:27;18.30;99.90
62339;DHT22;48368;53.406;6.214;2022-08-03T04:28:54;18.30;99.90
62339;DHT22;48368;53.406;6.214;2022-08-03T04:31:21;18.30;99.90
62339;DHT22;48368;53.406;6.214;2022-08-03T04:33:49;18.30;99.90
62339;DHT22;48368;53.406;6.214;2022-08-03T04:36:18;18.20;99.90
62339;DHT22;48368;53.406;6.214;2022-08-03T04:38:55;18.30;99.90
62339;DHT22;48368;53.406;6.214;2022-08-03T04:41:24;18.30;99.90
62339;DHT22;48368;53.406;6.214;2022-08-03T04:43:53;18.30;99.90
62339;DHT22;48368;53.406;6.214;2022-08-03T04:46:22;18.30;99.90
62339;DHT22;48368;53.406;6.214;2022-08-03T04:48:48;18.40;99.90
62339;DHT22;48368;53.406;6.214;2022-08-03T04:51:14;18.40;99.90
62339;DHT22;48368;53.406;6.214;2022-08-03T04:53:40;18.40;99.90
62339;DHT22;48368;53.406;6.214;2022-08-03T04:56:07;18.40;99.90
62339;DHT22;48368;53.406;6.214;2022-08-03T04:58:33;18.40;99.90
62339;DHT22;48368;53.406;6.214;2022-08-03T05:00:58;18.40;99.90
62339;DHT22;48368;53.406;6.214;2022-08-03T05:03:24;18.50;99.90
62339;DHT22;48368;53.406;6.214;2022-08-03T05:05:53;18.50;99.90
62339;DHT22;48368;53.406;6.214;2022-08-03T05:08:19;18.50;99.90
62339;DHT22;48368;53.406;6.214;2022-08-03T05:10:45;18.60;99.90
62339;DHT22;48368;53.406;6.214;2022-08-03T05:13:11;18.60;99.90
62339;DHT22;48368;53.406;6.214;2022-08-03T05:15:38;18.60;99.90
62339;DHT22;48368;53.406;6.214;2022-08-03T05:18:04;18.60;99.90
62339;DHT22;48368;53.406;6.214;2022-08-03T05:20:30;18.60;99.90
62339;DHT22;48368;53.406;6.214;2022-08-03T05:22:56;18.60;99.90
62339;DHT22;48368;53.406;6.214;2022-08-03T05:25:22;18.70;99.90
62339;DHT22;48368;53.406;6.214;2022-08-03T05:27:47;18.70;99.90
62339;DHT22;48368;53.406;6.214;2022-08-03T05:30:13;18.70;99.90
62339;DHT22;48368;53.406;6.214;2022-08-03T05:32:39;18.80;99.90
62339;DHT22;48368;53.406;6.214;2022-08-03T05:35:05;18.80;99.90
62339;DHT22;48368;53.406;6.214;2022-08-03T05:37:31;18.90;99.90
62339;DHT22;48368;53.406;6.214;2022-08-03T05:39:56;19.00;99.90
62339;DHT22;48368;53.406;6.214;2022-08-03T05:42:22;18.90;99.90
62339;DHT22;48368;53.406;6.214;2022-08-03T05:44:48;19.10;99.90
62339;DHT22;48368;53.406;6.214;2022-08-03T05:47:13;19.10;99.90
62339;DHT22;48368;53.406;6.214;2022-08-03T05:49:39;19.20;99.90
62339;DHT22;48368;53.406;6.214;2022-08-03T05:52:04;19.30;99.90
62339;DHT22;48368;53.406;6.214;2022-08-03T05:54:30;19.40;99.90
62339;DHT22;48368;53.406;6.214;2022-08-03T05:56:56;19.40;99.90
62339;DHT22;48368;53.406;6.214;2022-08-03T05:59:21;19.50;99.90
62339;DHT22;48368;53.406;6.214;2022-08-03T06:01:47;19.60;99.90
62339;DHT22;48368;53.406;6.214;2022-08-03T06:04:13;19.70;99.90
62339;DHT22;48368;53.406;6.214;2022-08-03T06:06:38;19.80;99.90
62339;DHT22;48368;53.406;6.214;2022-08-03T06:09:04;20.00;99.90
62339;DHT22;48368;53.406;6.214;2022-08-03T06:11:30;20.00;99.90
62339;DHT22;48368;53.406;6.214;2022-08-03T06:13:55;20.10;99.90
62339;DHT22;48368;53.406;6.214;2022-08-03T06:16:21;20.30;99.90
62339;DHT22;48368;53.406;6.214;2022-08-03T06:18:46;20.40;99.90
62339;DHT22;48368;53.406;6.214;2022-08-03T06:21:12;20.50;99.90
62339;DHT22;48368;53.406;6.214;2022-08-03T06:23:38;20.60;99.90
62339;DHT22;48368;53.406;6.214;2022-08-03T06:26:03;20.70;99.90
62339;DHT22;48368;53.406;6.214;2022-08-03T06:28:29;20.80;99.90
62339;DHT22;48368;53.406;6.214;2022-08-03T06:30:55;20.90;99.90
62339;DHT22;48368;53.406;6.214;2022-08-03T06:33:20;21.00;99.90
62339;DHT22;48368;53.406;6.214;2022-08-03T06:35:46;21.10;99.90
62339;DHT22;48368;53.406;6.214;2022-08-03T06:38:11;21.20;99.90
62339;DHT22;48368;53.406;6.214;2022-08-03T06:40:37;21.30;99.90
62339;DHT22;48368;53.406;6.214;2022-08-03T06:43:06;21.30;99.90
62339;DHT22;48368;53.406;6.214;2022-08-03T06:45:33;21.40;99.90
62339;DHT22;48368;53.406;6.214;2022-08-03T06:48:08;21.50;99.90
62339;DHT22;48368;53.406;6.214;2022-08-03T06:50:34;21.70;99.90
62339;DHT22;48368;53.406;6.214;2022-08-03T06:53:01;21.70;99.90
62339;DHT22;48368;53.406;6.214;2022-08-03T06:55:27;21.80;99.90
62339;DHT22;48368;53.406;6.214;2022-08-03T06:57:53;21.90;99.90
62339;DHT22;48368;53.406;6.214;2022-08-03T07:00:19;22.00;99.90
62339;DHT22;48368;53.406;6.214;2022-08-03T07:02:45;22.10;99.90
62339;DHT22;48368;53.406;6.214;2022-08-03T07:05:11;22.30;99.90
62339;DHT22;48368;53.406;6.214;2022-08-03T07:07:38;22.30;99.90
62339;DHT22;48368;53.406;6.214;2022-08-03T07:10:05;22.30;99.90
62339;DHT22;48368;53.406;6.214;2022-08-03T07:12:31;22.30;99.90
62339;DHT22;48368;53.406;6.214;2022-08-03T07:14:58;22.30;99.90
62339;DHT22;48368;53.406;6.214;2022-08-03T07:17:24;22.40;99.90
62339;DHT22;48368;53.406;6.214;2022-08-03T07:19:49;22.50;99.90
62339;DHT22;48368;53.406;6.214;2022-08-03T07:22:16;22.60;99.90
62339;DHT22;48368;53.406;6.214;2022-08-03T07:24:41;22.70;99.90
62339;DHT22;48368;53.406;6.214;2022-08-03T07:27:08;22.70;99.90
62339;DHT22;48368;53.406;6.214;2022-08-03T07:29:34;22.60;99.90
62339;DHT22;48368;53.406;6.214;2022-08-03T07:32:01;22.60;99.90
62339;DHT22;48368;53.406;6.214;2022-08-03T07:34:26;22.60;99.90
62339;DHT22;48368;53.406;6.214;2022-08-03T07:36:52;22.70;99.90
62339;DHT22;48368;53.406;6.214;2022-08-03T07:39:18;22.70;99.90
62339;DHT22;48368;53.406;6.214;2022-08-03T07:41:44;22.80;99.90
62339;DHT22;48368;53.406;6.214;2022-08-03T07:44:10;23.00;99.90
62339;DHT22;48368;53.406;6.214;2022-08-03T07:46:36;23.20;99.90
62339;DHT22;48368;53.406;6.214;2022-08-03T07:49:02;23.50;99.90
62339;DHT22;48368;53.406;6.214;2022-08-03T07:51:27;23.50;99.90
62339;DHT22;48368;53.406;6.214;2022-08-03T07:53:53;23.60;99.90
62339;DHT22;48368;53.406;6.214;2022-08-03T07:56:22;23.60;99.90
62339;DHT22;48368;53.406;6.214;2022-08-03T07:58:50;23.70;99.90
62339;DHT22;48368;53.406;6.214;2022-08-03T08:01:15;23.70;99.90
62339;DHT22;48368;53.406;6.214;2022-08-03T08:03:41;23.70;99.90
62339;DHT22;48368;53.406;6.214;2022-08-03T08:06:07;23.90;99.90
62339;DHT22;48368;53.406;6.214;2022-08-03T08:08:33;24.10;99.90
62339;DHT22;48368;53.406;6.214;2022-08-03T08:10:58;24.20;99.90
62339;DHT22;48368;53.406;6.214;2022-08-03T08:13:24;24.40;99.90
62339;DHT22;48368;53.406;6.214;2022-08-03T08:15:50;24.50;99.90
62339;DHT22;48368;53.406;6.214;2022-08-03T08:18:16;24.60;99.90
62339;DHT22;48368;53.406;6.214;2022-08-03T08:20:42;24.60;99.90
62339;DHT22;48368;53.406;6.214;2022-08-03T08:23:08;24.70;99.90
62339;DHT22;48368;53.406;6.214;2022-08-03T08:25:34;24.70;99.90
62339;DHT22;48368;53.406;6.214;2022-08-03T08:28:00;24.70;99.90
62339;DHT22;48368;53.406;6.214;2022-08-03T08:30:28;24.80;99.90
62339;DHT22;48368;53.406;6.214;2022-08-03T08:32:53;24.80;99.90
62339;DHT22;48368;53.406;6.214;2022-08-03T08:35:19;25.00;99.90
62339;DHT22;48368;53.406;6.214;2022-08-03T08:37:45;25.10;99.90
62339;DHT22;48368;53.406;6.214;2022-08-03T08:40:12;25.10;99.90
62339;DHT22;48368;53.406;6.214;2022-08-03T08:42:43;25.20;99.90
62339;DHT22;48368;53.406;6.214;2022-08-03T08:45:10;25.40;99.90
62339;DHT22;48368;53.406;6.214;2022-08-03T08:47:40;25.30;99.90
62339;DHT22;48368;53.406;6.214;2022-08-03T08:50:09;25.30;99.90
62339;DHT22;48368;53.406;6.214;2022-08-03T08:52:36;25.30;99.90
62339;DHT22;48368;53.406;6.214;2022-08-03T08:55:05;25.50;99.90
62339;DHT22;48368;53.406;6.214;2022-08-03T08:57:47;25.60;99.90
62339;DHT22;48368;53.406;6.214;2022-08-03T09:00:14;25.50;99.90
62339;DHT22;48368;53.406;6.214;2022-08-03T09:02:44;25.60;99.90
62339;DHT22;48368;53.406;6.214;2022-08-03T09:05:15;25.80;99.90
62339;DHT22;48368;53.406;6.214;2022-08-03T09:07:42;25.70;99.90
62339;DHT22;48368;53.406;6.214;2022-08-03T09:10:10;25.80;99.90
62339;DHT22;48368;53.406;6.214;2022-08-03T09:12:44;26.00;99.90
62339;DHT22;48368;53.406;6.214;2022-08-03T09:15:30;26.10;99.90
62339;DHT22;48368;53.406;6.214;2022-08-03T09:17:59;26.20;99.90
62339;DHT22;48368;53.406;6.214;2022-08-03T09:20:27;26.50;99.90
62339;DHT22;48368;53.406;6.214;2022-08-03T09:23:04;26.50;99.90
62339;DHT22;48368;53.406;6.214;2022-08-03T09:25:34;26.50;99.90
62339;DHT22;48368;53.406;6.214;2022-08-03T09:28:14;26.50;99.90
62339;DHT22;48368;53.406;6.214;2022-08-03T09:30:43;26.50;99.90
62339;DHT22;48368;53.406;6.214;2022-08-03T09:33:12;26.50;99.90
62339;DHT22;48368;53.406;6.214;2022-08-03T09:35:47;26.60;99.90
62339;DHT22;48368;53.406;6.214;2022-08-03T09:38:18;26.60;99.90
62339;DHT22;48368;53.406;6.214;2022-08-03T09:40:48;26.40;99.90
62339;DHT22;48368;53.406;6.214;2022-08-03T09:43:14;26.50;99.90
62339;DHT22;48368;53.406;6.214;2022-08-03T09:45:40;26.50;99.90
62339;DHT22;48368;53.406;6.214;2022-08-03T09:48:26;26.60;99.90
62339;DHT22;48368;53.406;6.214;2022-08-03T09:50:53;26.60;99.90
62339;DHT22;48368;53.406;6.214;2022-08-03T09:53:20;26.80;99.90
62339;DHT22;48368;53.406;6.214;2022-08-03T09:56:04;26.50;99.90
62339;DHT22;48368;53.406;6.214;2022-08-03T09:58:30;26.40;99.90
62339;DHT22;48368;53.406;6.214;2022-08-03T10:00:57;26.30;99.90
62339;DHT22;48368;53.406;6.214;2022-08-03T10:03:24;26.30;99.90
62339;DHT22;48368;53.406;6.214;2022-08-03T10:05:50;26.50;99.90
62339;DHT22;48368;53.406;6.214;2022-08-03T10:08:17;26.60;99.90
62339;DHT22;48368;53.406;6.214;2022-08-03T10:10:45;26.80;99.90
62339;DHT22;48368;53.406;6.214;2022-08-03T10:13:12;27.10;99.90
62339;DHT22;48368;53.406;6.214;2022-08-03T10:15:39;27.10;99.90
62339;DHT22;48368;53.406;6.214;2022-08-03T10:18:05;26.80;99.90
62339;DHT22;48368;53.406;6.214;2022-08-03T10:20:36;26.80;99.90
62339;DHT22;48368;53.406;6.214;2022-08-03T10:23:03;26.90;99.90
62339;DHT22;48368;53.406;6.214;2022-08-03T10:25:30;26.90;99.90
62339;DHT22;48368;53.406;6.214;2022-08-03T10:27:57;26.90;99.90
62339;DHT22;48368;53.406;6.214;2022-08-03T10:30:27;27.10;99.90
62339;DHT22;48368;53.406;6.214;2022-08-03T10:33:09;27.00;99.90
62339;DHT22;48368;53.406;6.214;2022-08-03T10:35:38;27.00;99.90
62339;DHT22;48368;53.406;6.214;2022-08-03T10:38:09;27.10;99.90
62339;DHT22;48368;53.406;6.214;2022-08-03T10:40:37;27.20;99.90
62339;DHT22;48368;53.406;6.214;2022-08-03T10:43:08;27.20;99.90
62339;DHT22;48368;53.406;6.214;2022-08-03T10:45:40;27.40;99.90
62339;DHT22;48368;53.406;6.214;2022-08-03T10:48:07;27.50;99.90
62339;DHT22;48368;53.406;6.214;2022-08-03T10:50:32;27.40;99.90
62339;DHT22;48368;53.406;6.214;2022-08-03T10:53:02;27.20;99.90
62339;DHT22;48368;53.406;6.214;2022-08-03T10:55:36;27.00;99.90
62339;DHT22;48368;53.406;6.214;2022-08-03T11:01:01;27.40;99.90
62339;DHT22;48368;53.406;6.214;2022-08-03T11:03:27;27.30;99.90
62339;DHT22;48368;53.406;6.214;2022-08-03T11:06:14;27.20;99.90
62339;DHT22;48368;53.406;6.214;2022-08-03T11:08:43;27.00;99.90
62339;DHT22;48368;53.406;6.214;2022-08-03T11:13:57;26.90;99.90
62339;DHT22;48368;53.406;6.214;2022-08-03T11:16:26;26.70;99.90
62339;DHT22;48368;53.406;6.214;2022-08-03T11:18:59;26.50;99.90
62339;DHT22;48368;53.406;6.214;2022-08-03T11:35:25;26.50;99.90
62339;DHT22;48368;53.406;6.214;2022-08-03T11:42:59;26.40;99.90
62339;DHT22;48368;53.406;6.214;2022-08-03T11:45:25;26.30;99.90
62339;DHT22;48368;53.406;6.214;2022-08-03T11:47:54;26.30;99.90
62339;DHT22;48368;53.406;6.214;2022-08-03T11:50:20;26.20;99.90
62339;DHT22;48368;53.406;6.214;2022-08-03T11:52:47;26.40;99.90
62339;DHT22;48368;53.406;6.214;2022-08-03T11:55:15;26.30;99.90
62339;DHT22;48368;53.406;6.214;2022-08-03T11:57:41;26.30;99.90
62339;DHT22;48368;53.406;6.214;2022-08-03T12:03:03;26.60;99.90
62339;DHT22;48368;53.406;6.214;2022-08-03T12:05:38;26.60;99.90
62339;DHT22;48368;53.406;6.214;2022-08-03T12:08:05;26.60;99.90
62339;DHT22;48368;53.406;6.214;2022-08-03T12:10:31;26.40;99.90
62339;DHT22;48368;53.406;6.214;2022-08-03T12:12:58;26.50;99.90
62339;DHT22;48368;53.406;6.214;2022-08-03T12:15:26;26.50;99.90
62339;DHT22;48368;53.406;6.214;2022-08-03T12:17:52;26.40;99.90
62339;DHT22;48368;53.406;6.214;2022-08-03T12:20:23;26.40;99.90
62339;DHT22;48368;53.406;6.214;2022-08-03T12:22:49;26.50;99.90
62339;DHT22;48368;53.406;6.214;2022-08-03T12:25:25;26.60;99.90
62339;DHT22;48368;53.406;6.214;2022-08-03T12:27:52;26.80;99.90
62339;DHT22;48368;53.406;6.214;2022-08-03T12:30:19;26.90;99.90
62339;DHT22;48368;53.406;6.214;2022-08-03T12:32:45;26.80;99.90
62339;DHT22;48368;53.406;6.214;2022-08-03T12:35:21;26.80;99.90
62339;DHT22;48368;53.406;6.214;2022-08-03T12:37:50;26.70;99.90
62339;DHT22;48368;53.406;6.214;2022-08-03T12:40:24;26.60;99.90
62339;DHT22;48368;53.406;6.214;2022-08-03T12:42:51;26.60;99.90
62339;DHT22;48368;53.406;6.214;2022-08-03T12:45:25;26.50;99.90
62339;DHT22;48368;53.406;6.214;2022-08-03T12:47:56;26.60;99.90
62339;DHT22;48368;53.406;6.214;2022-08-03T12:50:29;26.70;99.90
62339;DHT22;48368;53.406;6.214;2022-08-03T12:52:56;26.80;99.90
62339;DHT22;48368;53.406;6.214;2022-08-03T12:55:22;26.90;99.90
62339;DHT22;48368;53.406;6.214;2022-08-03T12:57:48;27.10;99.90
62339;DHT22;48368;53.406;6.214;2022-08-03T13:00:16;26.90;99.90
62339;DHT22;48368;53.406;6.214;2022-08-03T13:02:42;26.90;99.90
62339;DHT22;48368;53.406;6.214;2022-08-03T13:05:14;27.10;99.90
62339;DHT22;48368;53.406;6.214;2022-08-03T13:07:44;27.00;99.90
62339;DHT22;48368;53.406;6.214;2022-08-03T13:10:12;26.70;99.90
62339;DHT22;48368;53.406;6.214;2022-08-03T13:12:51;26.70;99.90
62339;DHT22;48368;53.406;6.214;2022-08-03T13:15:17;26.50;99.90
62339;DHT22;48368;53.406;6.214;2022-08-03T13:17:44;26.60;99.90
62339;DHT22;48368;53.406;6.214;2022-08-03T13:20:09;26.60;99.90
62339;DHT22;48368;53.406;6.214;2022-08-03T13:22:35;26.70;99.90
62339;DHT22;48368;53.406;6.214;2022-08-03T13:25:01;26.50;99.90
62339;DHT22;48368;53.406;6.214;2022-08-03T13:27:29;26.60;99.90
62339;DHT22;48368;53.406;6.214;2022-08-03T13:29:55;26.70;99.90
62339;DHT22;48368;53.406;6.214;2022-08-03T13:32:21;26.70;99.90
62339;DHT22;48368;53.406;6.214;2022-08-03T13:34:47;26.70;99.90
62339;DHT22;48368;53.406;6.214;2022-08-03T13:37:13;26.80;99.90
62339;DHT22;48368;53.406;6.214;2022-08-03T13:39:40;26.80;99.90
62339;DHT22;48368;53.406;6.214;2022-08-03T13:42:07;26.80;99.90
62339;DHT22;48368;53.406;6.214;2022-08-03T13:44:33;26.70;99.90
62339;DHT22;48368;53.406;6.214;2022-08-03T13:47:01;26.80;99.90
62339;DHT22;48368;53.406;6.214;2022-08-03T13:49:27;26.80;99.90
62339;DHT22;48368;53.406;6.214;2022-08-03T13:51:57;26.90;99.90
62339;DHT22;48368;53.406;6.214;2022-08-03T13:54:23;26.90;99.90
62339;DHT22;48368;53.406;6.214;2022-08-03T13:56:49;27.00;99.90
62339;DHT22;48368;53.406;6.214;2022-08-03T13:59:19;27.10;99.90
62339;DHT22;48368;53.406;6.214;2022-08-03T14:01:46;27.10;99.90
62339;DHT22;48368;53.406;6.214;2022-08-03T14:04:12;27.00;99.90
62339;DHT22;48368;53.406;6.214;2022-08-03T14:06:37;26.80;99.90
62339;DHT22;48368;53.406;6.214;2022-08-03T14:09:03;27.00;99.90
62339;DHT22;48368;53.406;6.214;2022-08-03T14:11:29;27.10;99.90
62339;DHT22;48368;53.406;6.214;2022-08-03T14:13:54;27.40;99.90
62339;DHT22;48368;53.406;6.214;2022-08-03T14:16:20;27.50;99.90
62339;DHT22;48368;53.406;6.214;2022-08-03T14:18:46;27.40;99.90
62339;DHT22;48368;53.406;6.214;2022-08-03T14:21:12;27.50;99.90
62339;DHT22;48368;53.406;6.214;2022-08-03T14:23:38;27.50;99.90
62339;DHT22;48368;53.406;6.214;2022-08-03T14:26:07;27.30;99.90
62339;DHT22;48368;53.406;6.214;2022-08-03T14:28:33;27.10;99.90
62339;DHT22;48368;53.406;6.214;2022-08-03T14:31:00;26.80;99.90
62339;DHT22;48368;53.406;6.214;2022-08-03T14:33:25;26.60;99.90
62339;DHT22;48368;53.406;6.214;2022-08-03T14:35:53;26.30;99.90
62339;DHT22;48368;53.406;6.214;2022-08-03T14:38:19;26.10;99.90
62339;DHT22;48368;53.406;6.214;2022-08-03T14:40:45;25.80;99.90
62339;DHT22;48368;53.406;6.214;2022-08-03T14:43:11;25.50;99.90
62339;DHT22;48368;53.406;6.214;2022-08-03T14:45:37;25.30;99.90
62339;DHT22;48368;53.406;6.214;2022-08-03T14:48:03;25.10;99.90
62339;DHT22;48368;53.406;6.214;2022-08-03T14:50:29;24.90;99.90
62339;DHT22;48368;53.406;6.214;2022-08-03T14:52:55;24.90;99.90
62339;DHT22;48368;53.406;6.214;2022-08-03T14:55:20;24.90;99.90
62339;DHT22;48368;53.406;6.214;2022-08-03T14:57:46;25.00;99.90
62339;DHT22;48368;53.406;6.214;2022-08-03T15:00:12;25.00;99.90
62339;DHT22;48368;53.406;6.214;2022-08-03T15:02:38;25.00;99.90
62339;DHT22;48368;53.406;6.214;2022-08-03T15:05:04;24.90;99.90
62339;DHT22;48368;53.406;6.214;2022-08-03T15:07:29;25.00;99.90
62339;DHT22;48368;53.406;6.214;2022-08-03T15:09:55;25.10;99.90
62339;DHT22;48368;53.406;6.214;2022-08-03T15:12:21;25.00;99.90
62339;DHT22;48368;53.406;6.214;2022-08-03T15:14:46;25.10;99.90
62339;DHT22;48368;53.406;6.214;2022-08-03T15:17:12;25.00;99.90
62339;DHT22;48368;53.406;6.214;2022-08-03T15:19:37;24.80;99.90
62339;DHT22;48368;53.406;6.214;2022-08-03T15:22:04;24.80;99.90
62339;DHT22;48368;53.406;6.214;2022-08-03T15:24:30;24.80;99.90
62339;DHT22;48368;53.406;6.214;2022-08-03T15:26:56;24.80;99.90
62339;DHT22;48368;53.406;6.214;2022-08-03T15:29:21;24.70;99.90
62339;DHT22;48368;53.406;6.214;2022-08-03T15:31:47;24.50;99.90
62339;DHT22;48368;53.406;6.214;2022-08-03T15:34:13;24.60;99.90
62339;DHT22;48368;53.406;6.214;2022-08-03T15:36:38;24.70;99.90
62339;DHT22;48368;53.406;6.214;2022-08-03T15:39:05;24.70;99.90
62339;DHT22;48368;53.406;6.214;2022-08-03T15:41:31;24.70;99.90
62339;DHT22;48368;53.406;6.214;2022-08-03T15:43:57;24.60;99.90
62339;DHT22;48368;53.406;6.214;2022-08-03T15:46:22;24.60;99.90
62339;DHT22;48368;53.406;6.214;2022-08-03T15:48:48;24.60;99.90
62339;DHT22;48368;53.406;6.214;2022-08-03T15:51:14;24.60;99.90
62339;DHT22;48368;53.406;6.214;2022-08-03T15:53:40;24.80;99.90
62339;DHT22;48368;53.406;6.214;2022-08-03T15:56:05;24.80;99.90
62339;DHT22;48368;53.406;6.214;2022-08-03T15:58:35;24.80;99.90
62339;DHT22;48368;53.406;6.214;2022-08-03T16:01:02;24.90;99.90
62339;DHT22;48368;53.406;6.214;2022-08-03T16:03:28;24.90;99.90
62339;DHT22;48368;53.406;6.214;2022-08-03T16:06:00;24.90;99.90
62339;DHT22;48368;53.406;6.214;2022-08-03T16:08:26;24.90;99.90
62339;DHT22;48368;53.406;6.214;2022-08-03T16:10:51;24.80;99.90
62339;DHT22;48368;53.406;6.214;2022-08-03T16:13:17;24.70;99.90